Time;durP1;ratioP1;P1;durP2;ratioP2;P2;SDS_P1;SDS_P2;PMS_P1;PMS_P2;Temp;Humidity;BMP_temperature;BMP_pressure;BME280_temperature;BME280_humidity;BME280_pressure;Samples;Min_cycle;Max_cycle;Signal;HPM_P1;HPM_P2
2021/09/29 00:01:35;;;;;;;;;;;;;;;18.86;61.97;101785.84;4998985;28;99099;-83
2021/09/29 00:04:01;;;;;;;;;;;;;;;18.67;62.23;101785.06;4998916;28;97166;-84
2021/09/29 00:06:29;;;;;;;;;;;;;;;18.78;61.99;101781.81;4998923;28;96891;-84
2021/09/29 00:08:55;;;;;;;;;;;;;;;18.75;62.12;101776.66;4999035;28;100637;-84
2021/09/29 00:11:25;;;;;;;;;;;;;;;18.68;62.46;101776.97;4991034;28;99016;-84
2021/09/29 00:13:52;;;;;;;;;;;;;;;18.69;62.56;101777.84;4995753;28;97290;-83
2021/09/29 00:16:19;;;;;;;;;;;;;;;18.59;62.79;101776.56;4999859;28;96858;-83
2021/09/29 00:18:47;;;;;;;;;;;;;;;18.66;62.53;101769.97;4999682;28;100089;-84
2021/09/29 00:21:14;;;;;;;;;;;;;;;18.45;63.00;101769.22;4994662;28;98718;-84
2021/09/29 00:23:42;;;;;;;;;;;;;;;18.50;62.67;101763.66;4994287;28;96945;-83
2021/09/29 00:26:09;;;;;;;;;;;;;;;18.52;62.48;101765.28;5001279;28;97454;-83
2021/09/29 00:28:36;;;;;;;;;;;;;;;18.56;62.14;101756.22;4986983;28;97881;-82
2021/09/29 00:31:05;;;;;;;;;;;;;;;18.42;62.88;101752.50;4997866;28;97999;-81
2021/09/29 00:33:34;;;;;;;;;;;;;;;18.46;62.59;101754.91;5007904;28;96925;-83
2021/09/29 00:36:01;;;;;;;;;;;;;;;18.43;62.61;101751.53;5019208;28;96571;-83
2021/09/29 00:38:30;;;;;;;;;;;;;;;18.55;61.94;101750.91;4996326;28;97552;-84
2021/09/29 00:40:58;;;;;;;;;;;;;;;18.46;62.30;101752.25;5003727;28;98282;-84
2021/09/29 00:43:27;;;;;;;;;;;;;;;18.44;62.33;101750.59;4999670;28;95919;-84
2021/09/29 00:45:54;;;;;;;;;;;;;;;18.32;62.51;101749.41;5012395;28;96247;-84
2021/09/29 00:48:20;;;;;;;;;;;;;;;18.39;62.27;101744.59;5010683;28;98786;-83
2021/09/29 00:50:50;;;;;;;;;;;;;;;18.46;62.08;101736.19;5016504;28;97999;-83
2021/09/29 00:53:17;;;;;;;;;;;;;;;18.60;61.40;101738.16;5018031;27;96431;-84
2021/09/29 00:55:43;;;;;;;;;;;;;;;18.46;62.01;101733.50;4997847;28;96023;-84
2021/09/29 00:58:11;;;;;;;;;;;;;;;18.39;61.97;101726.75;4998678;28;99046;-83
2021/09/29 01:00:38;;;;;;;;;;;;;;;18.43;62.10;101725.66;4997917;28;99723;-83
2021/09/29 01:03:04;;;;;;;;;;;;;;;18.43;62.09;101731.00;5007915;28;96527;-82
2021/09/29 01:05:32;;;;;;;;;;;;;;;18.14;62.91;101723.63;4989574;28;96834;-84
2021/09/29 01:08:02;;;;;;;;;;;;;;;18.22;62.20;101716.06;5007185;28;99881;-85
2021/09/29 01:10:35;;;;;;;;;;;;;;;18.38;61.74;101716.16;5007876;28;100349;-84
2021/09/29 01:15:49;;;;;;;;;;;;;;;18.33;61.80;101701.19;5002073;28;97041;-85
2021/09/29 01:18:43;;;;;;;;;;;;;;;18.12;62.47;101704.97;4999668;28;98112;-85
2021/09/29 01:21:11;;;;;;;;;;;;;;;18.15;62.54;101695.94;5001497;28;98280;-82
2021/09/29 01:23:51;;;;;;;;;;;;;;;18.15;62.49;101701.28;5017134;28;97040;-84
2021/09/29 01:26:21;;;;;;;;;;;;;;;18.12;62.35;101698.75;4979944;28;96705;-83
2021/09/29 01:28:49;;;;;;;;;;;;;;;18.24;62.23;101688.31;5018798;28;99113;-83
2021/09/29 01:31:16;;;;;;;;;;;;;;;18.36;61.77;101688.59;5019519;27;98260;-84
2021/09/29 01:33:44;;;;;;;;;;;;;;;18.40;61.42;101688.34;5019935;28;96415;-83
2021/09/29 01:36:11;;;;;;;;;;;;;;;18.52;61.08;101684.13;5005673;28;96699;-83
2021/09/29 01:38:39;;;;;;;;;;;;;;;18.57;60.69;101683.00;5002526;28;101144;-84
2021/09/29 01:41:05;;;;;;;;;;;;;;;18.33;61.53;101685.13;5000605;28;99123;-83
2021/09/29 01:43:33;;;;;;;;;;;;;;;18.00;62.30;101681.53;4997987;28;96947;-83
2021/09/29 01:46:00;;;;;;;;;;;;;;;18.12;61.95;101682.69;5007084;28;96770;-84
2021/09/29 01:48:26;;;;;;;;;;;;;;;18.22;61.58;101679.47;5015776;27;96921;-84
2021/09/29 01:50:56;;;;;;;;;;;;;;;18.11;62.04;101670.31;5005394;28;96610;-85
2021/09/29 01:53:24;;;;;;;;;;;;;;;17.94;62.53;101676.50;4990379;28;96772;-85
2021/09/29 01:55:50;;;;;;;;;;;;;;;18.11;62.16;101673.84;4986764;28;96879;-85
2021/09/29 01:58:18;;;;;;;;;;;;;;;18.15;62.47;101677.22;4997124;28;101139;-85
2021/09/29 02:00:46;;;;;;;;;;;;;;;18.59;61.32;101669.50;4998848;28;97747;-84
2021/09/29 02:03:20;;;;;;;;;;;;;;;18.45;61.18;101662.19;4998818;28;96909;-84
2021/09/29 02:05:49;;;;;;;;;;;;;;;18.35;61.66;101660.97;5000151;28;96795;-84
2021/09/29 02:08:16;;;;;;;;;;;;;;;18.45;61.22;101664.88;5000857;28;100745;-82
2021/09/29 02:10:42;;;;;;;;;;;;;;;18.51;61.37;101663.69;4996909;28;98692;-84
2021/09/29 02:13:09;;;;;;;;;;;;;;;18.43;62.16;101668.59;4972329;28;97044;-85
2021/09/29 02:15:36;;;;;;;;;;;;;;;18.61;61.56;101665.81;4999058;28;96789;-84
2021/09/29 02:18:04;;;;;;;;;;;;;;;18.82;61.10;101660.22;4998473;28;96791;-85
2021/09/29 02:20:30;;;;;;;;;;;;;;;18.70;61.47;101664.47;4983209;28;98125;-85
2021/09/29 02:22:57;;;;;;;;;;;;;;;18.76;61.80;101655.22;4999140;28;96814;-85
2021/09/29 02:25:24;;;;;;;;;;;;;;;19.07;61.22;101655.22;4985710;28;96757;-84
2021/09/29 02:27:50;;;;;;;;;;;;;;;19.11;60.83;101651.41;5014694;27;100324;-84
2021/09/29 02:30:17;;;;;;;;;;;;;;;19.04;61.12;101650.03;5011112;27;97717;-82
2021/09/29 02:32:43;;;;;;;;;;;;;;;19.25;60.34;101642.59;5007693;27;96530;-82
2021/09/29 02:35:12;;;;;;;;;;;;;;;19.17;60.63;101634.13;5007741;27;96037;-84
2021/09/29 02:37:38;;;;;;;;;;;;;;;19.37;60.36;101637.38;5020186;27;98094;-80
2021/09/29 02:40:05;;;;;;;;;;;;;;;19.37;60.49;101642.75;5019938;27;98040;-83
2021/09/29 02:42:32;;;;;;;;;;;;;;;19.48;60.10;101640.38;5020553;27;96809;-83
2021/09/29 02:45:00;;;;;;;;;;;;;;;19.42;59.94;101631.78;5020677;27;95877;-78
2021/09/29 02:47:27;;;;;;;;;;;;;;;19.36;60.22;101634.81;5019929;27;98521;-80
2021/09/29 02:49:53;;;;;;;;;;;;;;;19.29;60.46;101634.31;5020141;27;99829;-80
2021/09/29 02:52:21;;;;;;;;;;;;;;;19.45;60.47;101629.78;5020532;27;95856;-80
2021/09/29 02:54:47;;;;;;;;;;;;;;;19.58;60.20;101631.75;5020580;27;95929;-79
2021/09/29 02:57:14;;;;;;;;;;;;;;;19.43;60.41;101625.44;5023214;27;97809;-82
2021/09/29 02:59:41;;;;;;;;;;;;;;;19.30;60.92;101627.09;5022904;27;100251;-84
2021/09/29 03:02:07;;;;;;;;;;;;;;;19.43;60.86;101625.44;5022699;28;96431;-84
2021/09/29 03:04:34;;;;;;;;;;;;;;;19.24;61.09;101620.28;5002877;28;95976;-84
2021/09/29 03:07:00;;;;;;;;;;;;;;;19.25;61.44;101622.03;4990140;28;99069;-85
2021/09/29 03:09:28;;;;;;;;;;;;;;;19.31;61.05;101620.81;4983205;28;98300;-84
2021/09/29 03:11:54;;;;;;;;;;;;;;;19.39;60.89;101618.53;4983504;28;97084;-84
2021/09/29 03:14:21;;;;;;;;;;;;;;;19.45;60.63;101618.19;5002511;28;96771;-84
2021/09/29 03:16:47;;;;;;;;;;;;;;;19.59;60.43;101620.09;5002273;28;99217;-84
2021/09/29 03:19:14;;;;;;;;;;;;;;;19.45;60.92;101620.88;4985150;28;98139;-85
2021/09/29 03:21:41;;;;;;;;;;;;;;;19.48;60.60;101613.56;5003082;28;96650;-84
2021/09/29 03:24:08;;;;;;;;;;;;;;;19.37;61.20;101609.72;5004861;28;97259;-85
2021/09/29 03:26:41;;;;;;;;;;;;;;;19.38;61.23;101612.31;5004351;28;99398;-85
2021/09/29 03:29:07;;;;;;;;;;;;;;;19.39;61.22;101611.38;5003479;28;97706;-85
2021/09/29 03:34:09;;;;;;;;;;;;;;;19.33;61.84;101611.72;5418933;22;98652;-84
2021/09/29 03:36:36;;;;;;;;;;;;;;;19.23;62.25;101605.16;4960591;28;97066;-84
2021/09/29 03:39:03;;;;;;;;;;;;;;;19.27;61.97;101604.06;4962242;28;96881;-84
2021/09/29 03:41:31;;;;;;;;;;;;;;;19.33;61.62;101597.47;4960732;28;96250;-83
2021/09/29 03:43:59;;;;;;;;;;;;;;;19.31;61.73;101594.88;4957166;28;97027;-84
2021/09/29 03:46:25;;;;;;;;;;;;;;;19.40;61.68;101588.13;4966853;28;101405;-85
2021/09/29 03:48:51;;;;;;;;;;;;;;;19.42;61.70;101592.44;4949548;28;98223;-85
2021/09/29 03:51:18;;;;;;;;;;;;;;;19.38;61.93;101579.28;4946515;28;96684;-85
2021/09/29 03:53:45;;;;;;;;;;;;;;;19.34;61.84;101584.00;4947418;28;96812;-84
2021/09/29 03:56:12;;;;;;;;;;;;;;;19.43;61.63;101578.06;4955969;28;98016;-85
2021/09/29 03:58:41;;;;;;;;;;;;;;;19.40;61.56;101578.25;4939858;28;99181;-85
2021/09/29 04:01:14;;;;;;;;;;;;;;;19.26;61.71;101582.69;4962175;28;96753;-84
2021/09/29 04:03:40;;;;;;;;;;;;;;;18.99;63.01;101579.78;4960087;28;96837;-84
2021/09/29 04:06:07;;;;;;;;;;;;;;;19.11;62.78;101571.91;4957591;28;96712;-85
2021/09/29 04:08:36;;;;;;;;;;;;;;;19.12;63.04;101575.47;4942103;28;99204;-85
2021/09/29 04:11:07;;;;;;;;;;;;;;;18.54;64.67;101565.34;4936537;28;96704;-85
2021/09/29 04:13:33;;;;;;;;;;;;;;;19.05;63.32;101568.72;4945951;28;96789;-85
2021/09/29 04:16:00;;;;;;;;;;;;;;;19.18;62.91;101567.06;4945579;28;101542;-84
2021/09/29 04:18:27;;;;;;;;;;;;;;;19.26;62.64;101558.59;4945379;28;97698;-84
2021/09/29 04:20:54;;;;;;;;;;;;;;;19.37;62.10;101557.00;4951644;28;97402;-84
2021/09/29 04:23:22;;;;;;;;;;;;;;;19.43;62.14;101548.59;4934125;28;98550;-83
2021/09/29 04:25:52;;;;;;;;;;;;;;;19.48;61.60;101540.31;4956854;28;100283;-83
2021/09/29 04:28:19;;;;;;;;;;;;;;;19.24;62.73;101547.94;4948384;28;98402;-85
2021/09/29 04:30:47;;;;;;;;;;;;;;;19.54;61.83;101542.63;4940743;28;96510;-83
2021/09/29 04:33:14;;;;;;;;;;;;;;;19.60;61.43;101546.75;4958227;28;95972;-83
2021/09/29 04:35:42;;;;;;;;;;;;;;;19.38;61.95;101547.13;4958451;28;100005;-83
2021/09/29 04:38:10;;;;;;;;;;;;;;;19.48;61.98;101548.38;4953670;28;98174;-84
2021/09/29 04:40:36;;;;;;;;;;;;;;;19.43;62.13;101551.25;4953589;28;96913;-85
2021/09/29 04:43:03;;;;;;;;;;;;;;;19.48;62.10;101538.50;4953975;28;97429;-85
2021/09/29 04:45:29;;;;;;;;;;;;;;;19.31;62.83;101535.06;4964889;28;99023;-84
2021/09/29 04:47:55;;;;;;;;;;;;;;;19.30;62.75;101527.97;4959754;28;97860;-85
2021/09/29 04:50:22;;;;;;;;;;;;;;;19.62;62.24;101535.00;4945814;28;96829;-84
2021/09/29 04:52:50;;;;;;;;;;;;;;;19.41;62.46;101525.53;4953320;28;97065;-85
2021/09/29 04:55:17;;;;;;;;;;;;;;;19.36;62.96;101527.63;4951855;28;101633;-85
2021/09/29 04:57:43;;;;;;;;;;;;;;;19.22;63.47;101541.84;4945428;28;98140;-85
2021/09/29 05:00:10;;;;;;;;;;;;;;;19.40;62.98;101529.16;4968790;28;96733;-84
2021/09/29 05:02:38;;;;;;;;;;;;;;;19.27;63.08;101529.03;4961842;28;96311;-85
2021/09/29 05:05:05;;;;;;;;;;;;;;;19.45;62.59;101532.41;4948162;28;100130;-87
2021/09/29 05:07:32;;;;;;;;;;;;;;;19.45;62.32;101527.06;4938281;28;96903;-88
2021/09/29 05:10:20;;;;;;;;;;;;;;;19.47;62.42;101534.09;4945847;28;96873;-88
2021/09/29 05:12:52;;;;;;;;;;;;;;;19.65;61.62;101531.25;4945942;28;97066;-88
2021/09/29 05:18:00;;;;;;;;;;;;;;;19.62;61.54;101536.81;4939733;28;96839;-84
2021/09/29 05:20:27;;;;;;;;;;;;;;;19.48;61.68;101533.16;4938589;28;97457;-85
2021/09/29 05:22:53;;;;;;;;;;;;;;;19.44;61.86;101528.00;4944497;28;97007;-85
2021/09/29 05:25:19;;;;;;;;;;;;;;;19.59;61.54;101520.91;4941486;28;96898;-85
2021/09/29 05:27:48;;;;;;;;;;;;;;;19.44;62.34;101523.50;4934642;28;97818;-84
2021/09/29 05:30:16;;;;;;;;;;;;;;;19.37;62.66;101513.25;4946835;28;96676;-84
2021/09/29 05:32:42;;;;;;;;;;;;;;;19.34;62.53;101525.03;4926017;28;96866;-85
2021/09/29 05:35:09;;;;;;;;;;;;;;;19.44;61.99;101522.66;4942019;28;98144;-84
2021/09/29 05:37:38;;;;;;;;;;;;;;;19.33;62.79;101528.66;4938171;28;99644;-84
2021/09/29 05:40:05;;;;;;;;;;;;;;;19.45;62.64;101525.25;4940982;28;97075;-85
2021/09/29 05:42:32;;;;;;;;;;;;;;;19.62;61.75;101513.53;4957589;28;96632;-85
2021/09/29 05:45:00;;;;;;;;;;;;;;;19.38;62.71;101507.81;4951217;28;97741;-84
2021/09/29 05:47:28;;;;;;;;;;;;;;;19.15;63.76;101497.59;4950334;28;99548;-82
2021/09/29 05:49:54;;;;;;;;;;;;;;;19.57;62.27;101494.19;4924113;28;96946;-85
2021/09/29 05:52:21;;;;;;;;;;;;;;;19.68;62.01;101490.84;4937390;28;97198;-85
2021/09/29 05:54:48;;;;;;;;;;;;;;;19.80;61.81;101495.47;4942824;28;98480;-85
2021/09/29 05:57:16;;;;;;;;;;;;;;;19.91;61.07;101484.91;4936944;28;99771;-85
2021/09/29 05:59:42;;;;;;;;;;;;;;;19.95;61.19;101486.47;4942907;28;97480;-85
2021/09/29 06:02:11;;;;;;;;;;;;;;;20.06;60.64;101478.59;4941234;28;97366;-85
2021/09/29 06:04:39;;;;;;;;;;;;;;;20.13;60.31;101482.59;4942090;28;99194;-84
2021/09/29 06:07:07;;;;;;;;;;;;;;;19.92;61.06;101473.22;4941849;28;96829;-85
2021/09/29 06:09:34;;;;;;;;;;;;;;;20.01;60.99;101469.13;4942067;28;96987;-85
2021/09/29 06:12:00;;;;;;;;;;;;;;;19.99;60.98;101479.06;4945873;28;96952;-84
2021/09/29 06:14:27;;;;;;;;;;;;;;;19.99;60.81;101471.88;4952006;28;98501;-85
2021/09/29 06:16:59;;;;;;;;;;;;;;;20.06;60.93;101477.72;4921114;28;99552;-85
2021/09/29 06:19:28;;;;;;;;;;;;;;;20.11;60.76;101480.97;4941936;28;96869;-85
2021/09/29 06:21:54;;;;;;;;;;;;;;;20.16;60.72;101474.34;4939710;28;97133;-84
2021/09/29 06:24:22;;;;;;;;;;;;;;;20.18;60.38;101474.25;4924643;28;98850;-85
2021/09/29 06:26:49;;;;;;;;;;;;;;;19.46;63.03;101461.81;4924828;28;99333;-86
2021/09/29 06:29:15;;;;;;;;;;;;;;;20.11;60.83;101468.41;4925857;28;97387;-85
2021/09/29 06:31:42;;;;;;;;;;;;;;;20.21;60.90;101469.56;4943328;28;96901;-84
2021/09/29 06:34:11;;;;;;;;;;;;;;;20.08;60.92;101460.59;4927788;28;98498;-85
2021/09/29 06:36:39;;;;;;;;;;;;;;;19.63;63.08;101461.63;4940898;28;97741;-84
2021/09/29 06:39:05;;;;;;;;;;;;;;;20.01;61.74;101451.19;4944233;28;96972;-84
2021/09/29 06:41:32;;;;;;;;;;;;;;;20.23;61.04;101454.22;4942201;28;96853;-84
2021/09/29 06:43:58;;;;;;;;;;;;;;;20.28;60.63;101444.03;4962410;28;101477;-85
2021/09/29 06:46:24;;;;;;;;;;;;;;;19.57;63.10;101445.06;4965786;28;96882;-84
2021/09/29 06:48:51;;;;;;;;;;;;;;;19.80;62.46;101444.50;4965141;28;96431;-85
2021/09/29 06:51:17;;;;;;;;;;;;;;;20.13;61.69;101445.06;4969791;28;97758;-84
2021/09/29 06:53:46;;;;;;;;;;;;;;;20.46;60.30;101449.22;4969798;28;97998;-86
2021/09/29 06:56:12;;;;;;;;;;;;;;;20.51;60.23;101441.72;4952621;28;100599;-83
2021/09/29 06:58:38;;;;;;;;;;;;;;;20.15;61.35;101428.84;4959536;28;97038;-84
2021/09/29 07:01:05;;;;;;;;;;;;;;;19.64;63.19;101436.53;4953076;28;96914;-85
2021/09/29 07:03:31;;;;;;;;;;;;;;;20.09;62.18;101426.53;4954345;28;98283;-84
2021/09/29 07:05:57;;;;;;;;;;;;;;;20.47;60.82;101432.16;4945381;28;97419;-84
2021/09/29 07:08:25;;;;;;;;;;;;;;;20.40;60.97;101436.19;4943165;28;99443;-85
2021/09/29 07:10:55;;;;;;;;;;;;;;;20.57;60.09;101434.13;4939102;28;96820;-84
2021/09/29 07:13:21;;;;;;;;;;;;;;;20.45;60.47;101432.25;4954336;28;98243;-85
2021/09/29 07:15:49;;;;;;;;;;;;;;;20.37;60.54;101418.47;4963719;28;97919;-84
2021/09/29 07:18:17;;;;;;;;;;;;;;;20.69;59.76;101414.50;4958232;28;97931;-85
2021/09/29 07:20:45;;;;;;;;;;;;;;;20.43;60.96;101419.88;4952546;28;96848;-84
2021/09/29 07:23:11;;;;;;;;;;;;;;;20.51;60.38;101417.56;4944394;28;99200;-84
2021/09/29 07:25:38;;;;;;;;;;;;;;;20.39;61.01;101404.94;4935038;28;98669;-84
2021/09/29 07:28:07;;;;;;;;;;;;;;;20.50;60.72;101405.09;4956897;28;96931;-85
2021/09/29 07:30:34;;;;;;;;;;;;;;;20.59;60.46;101394.59;4964775;28;98225;-85
2021/09/29 07:33:03;;;;;;;;;;;;;;;20.78;59.81;101396.91;4950766;28;99570;-84
2021/09/29 07:35:30;;;;;;;;;;;;;;;20.68;60.04;101401.16;4953931;28;98677;-84
2021/09/29 07:37:58;;;;;;;;;;;;;;;20.57;60.66;101390.28;4951418;28;96746;-83
2021/09/29 07:40:28;;;;;;;;;;;;;;;20.63;60.54;101385.38;4950107;28;96607;-85
2021/09/29 07:42:55;;;;;;;;;;;;;;;20.41;62.26;101381.56;4954555;28;100184;-82
2021/09/29 07:45:24;;;;;;;;;;;;;;;20.62;61.39;101380.09;4954594;28;99486;-84
2021/09/29 07:47:51;;;;;;;;;;;;;;;20.46;62.06;101377.59;4968311;28;95919;-82
2021/09/29 07:50:18;;;;;;;;;;;;;;;20.41;62.65;101373.50;4954906;28;96593;-82
2021/09/29 07:52:45;;;;;;;;;;;;;;;20.46;62.23;101369.56;4957266;28;98171;-82
2021/09/29 07:55:12;;;;;;;;;;;;;;;20.48;62.37;101369.44;4937885;28;97659;-83
2021/09/29 07:57:38;;;;;;;;;;;;;;;20.32;63.05;101366.88;4949430;28;96812;-84
2021/09/29 08:00:05;;;;;;;;;;;;;;;20.38;62.91;101362.97;4954107;28;96845;-85
2021/09/29 08:02:33;;;;;;;;;;;;;;;20.14;63.75;101363.59;4938082;28;101185;-84
2021/09/29 08:05:02;;;;;;;;;;;;;;;20.19;63.90;101371.34;4942775;28;97652;-84
2021/09/29 08:07:29;;;;;;;;;;;;;;;20.49;62.52;101361.28;4947510;28;96859;-85
2021/09/29 08:09:58;;;;;;;;;;;;;;;20.25;63.53;101368.25;4943757;28;96972;-84
2021/09/29 08:12:25;;;;;;;;;;;;;;;20.24;63.40;101370.06;4938782;28;98434;-83
2021/09/29 08:14:52;;;;;;;;;;;;;;;20.23;63.78;101379.06;4942969;28;98989;-84
2021/09/29 08:17:21;;;;;;;;;;;;;;;20.15;64.10;101383.25;4954538;28;96889;-83
2021/09/29 08:19:49;;;;;;;;;;;;;;;20.08;65.01;101398.00;4955028;28;96834;-85
2021/09/29 08:22:16;;;;;;;;;;;;;;;20.10;65.00;101401.44;4956929;28;100350;-83
2021/09/29 08:24:47;;;;;;;;;;;;;;;19.86;65.58;101396.72;4964356;28;97689;-82
2021/09/29 08:27:19;;;;;;;;;;;;;;;19.65;66.09;101373.06;4961252;28;96296;-83
2021/09/29 08:29:53;;;;;;;;;;;;;;;19.69;66.38;101380.81;4945822;28;95950;-81
2021/09/29 08:32:26;;;;;;;;;;;;;;;19.59;67.48;101390.41;4952683;28;96421;-79
2021/09/29 08:34:57;;;;;;;;;;;;;;;19.65;67.16;101379.28;4966032;28;97659;-81
2021/09/29 08:45:55;;;;;;;;;;;;;;;19.92;66.73;101360.59;5120142;27;96182;-79
2021/09/29 08:48:29;;;;;;;;;;;;;;;19.62;68.31;101368.78;5155322;22;98106;-83
2021/09/29 08:56:42;;;;;;;;;;;;;;;20.11;66.33;101345.00;5052763;27;96187;-83
2021/09/29 09:18:22;;;;;;;;;;;;;;;19.95;67.31;101344.31;5035951;27;96821;-83
2021/09/29 09:20:53;;;;;;;;;;;;;;;20.08;66.95;101353.28;5042430;27;98254;-83
2021/09/29 09:23:21;;;;;;;;;;;;;;;20.15;66.83;101367.97;5032482;28;97706;-85
2021/09/29 09:25:47;;;;;;;;;;;;;;;19.55;68.07;101369.25;5036126;27;96652;-85
2021/09/29 09:28:23;;;;;;;;;;;;;;;19.70;68.93;101357.53;5038995;27;97260;-85
2021/09/29 09:30:51;;;;;;;;;;;;;;;19.61;70.12;101350.09;5038301;27;98209;-86
2021/09/29 09:33:22;;;;;;;;;;;;;;;19.79;68.54;101359.66;5040431;27;99318;-85
2021/09/29 09:35:49;;;;;;;;;;;;;;;19.90;68.26;101352.63;5033735;27;97237;-84
2021/09/29 09:38:19;;;;;;;;;;;;;;;20.11;66.68;101355.75;5034957;28;96879;-84
2021/09/29 09:40:46;;;;;;;;;;;;;;;19.75;67.98;101353.63;5030756;27;98592;-83
2021/09/29 09:43:14;;;;;;;;;;;;;;;19.54;68.80;101348.78;5034138;27;101105;-83
2021/09/29 09:45:43;;;;;;;;;;;;;;;20.17;67.30;101357.16;5032929;28;98271;-83
2021/09/29 09:48:24;;;;;;;;;;;;;;;20.20;66.44;101357.81;5035767;27;97022;-83
2021/09/29 09:50:55;;;;;;;;;;;;;;;20.35;66.30;101352.44;5039272;27;99359;-82
2021/09/29 09:53:22;;;;;;;;;;;;;;;20.40;66.25;101350.31;5044755;28;98108;-82
2021/09/29 09:55:50;;;;;;;;;;;;;;;20.54;65.56;101337.69;5042438;28;97708;-84
2021/09/29 09:58:18;;;;;;;;;;;;;;;20.66;65.17;101330.63;5035499;28;96717;-83
2021/09/29 10:00:44;;;;;;;;;;;;;;;20.82;64.89;101333.94;5027711;28;98292;-83
2021/09/29 10:03:12;;;;;;;;;;;;;;;20.71;64.60;101336.53;5021916;28;101443;-83
2021/09/29 10:05:42;;;;;;;;;;;;;;;20.71;65.22;101331.16;5023261;28;96929;-83
2021/09/29 10:08:10;;;;;;;;;;;;;;;20.69;65.17;101325.03;5025678;28;98517;-85
2021/09/29 10:10:43;;;;;;;;;;;;;;;20.56;65.05;101319.63;5019049;28;98004;-83
2021/09/29 10:13:42;;;;;;;;;;;;;;;20.70;65.22;101326.75;5021868;28;100028;-84
2021/09/29 10:27:36;;;;;;;;;;;;;;;20.29;66.33;101338.41;5023219;28;97056;-85
2021/09/29 10:30:09;;;;;;;;;;;;;;;20.21;67.25;101337.22;5016657;28;97772;-85
2021/09/29 10:32:40;;;;;;;;;;;;;;;20.45;66.12;101335.59;5020889;28;99852;-84
2021/09/29 10:35:11;;;;;;;;;;;;;;;20.40;66.72;101339.56;5017254;28;98374;-85
2021/09/29 10:37:57;;;;;;;;;;;;;;;20.26;66.65;101341.31;5018447;28;96839;-85
2021/09/29 10:40:41;;;;;;;;;;;;;;;20.32;66.77;101329.31;5021050;28;96837;-84
2021/09/29 10:43:18;;;;;;;;;;;;;;;19.93;68.46;101343.53;5018586;28;98678;-85
2021/09/29 11:27:47;;;;;;;;;;;;;;;20.40;67.37;101307.38;5039725;28;96220;-85
2021/09/29 11:30:19;;;;;;;;;;;;;;;20.39;67.19;101314.56;5032676;28;100987;-85
2021/09/29 11:32:48;;;;;;;;;;;;;;;20.67;66.33;101309.03;5024433;28;96714;-85
2021/09/29 11:35:22;;;;;;;;;;;;;;;20.60;66.51;101299.69;5023283;28;96812;-84
2021/09/29 11:49:31;;;;;;;;;;;;;;;20.75;65.86;101291.50;4995388;28;97428;-87
2021/09/29 12:08:44;;;;;;;;;;;;;;;20.98;65.33;101288.09;5025063;27;96675;-84
2021/09/29 12:11:16;;;;;;;;;;;;;;;21.23;64.81;101293.47;5039095;27;97807;-86
2021/09/29 12:13:45;;;;;;;;;;;;;;;21.41;64.38;101285.91;5019073;28;96872;-87
2021/09/29 12:16:24;;;;;;;;;;;;;;;21.15;64.45;101274.31;5047330;27;96194;-85
2021/09/29 12:18:53;;;;;;;;;;;;;;;21.22;63.75;101272.94;5041128;27;96695;-85
2021/09/29 12:21:30;;;;;;;;;;;;;;;20.89;64.88;101277.97;5040993;27;99982;-86
2021/09/29 12:23:57;;;;;;;;;;;;;;;21.38;63.78;101280.78;5054839;27;97915;-85
2021/09/29 12:26:49;;;;;;;;;;;;;;;21.36;63.78;101271.94;5036545;27;96761;-85
2021/09/29 12:29:22;;;;;;;;;;;;;;;21.63;62.57;101263.72;5029454;28;96694;-86
2021/09/29 12:32:08;;;;;;;;;;;;;;;21.48;62.84;101265.69;5028969;28;98291;-85
2021/09/29 12:34:48;;;;;;;;;;;;;;;21.55;63.14;101263.41;5021325;28;99832;-86
2021/09/29 12:37:15;;;;;;;;;;;;;;;21.75;62.10;101263.66;5023594;28;97053;-87
2021/09/29 12:39:43;;;;;;;;;;;;;;;20.49;65.34;101259.25;5024993;28;96795;-85
2021/09/29 12:42:09;;;;;;;;;;;;;;;21.21;63.45;101264.97;5028223;28;98963;-86
2021/09/29 12:44:47;;;;;;;;;;;;;;;20.98;62.73;101264.78;5036158;28;98686;-85
2021/09/29 12:47:22;;;;;;;;;;;;;;;21.23;62.82;101271.13;5026109;28;96745;-84
2021/09/29 12:49:49;;;;;;;;;;;;;;;21.13;63.26;101260.16;5025260;28;96804;-85
2021/09/29 12:52:26;;;;;;;;;;;;;;;21.39;61.78;101264.53;5028493;28;100611;-86
2021/09/29 12:54:55;;;;;;;;;;;;;;;21.51;61.25;101270.84;5042689;28;98088;-85
2021/09/29 12:57:23;;;;;;;;;;;;;;;21.09;62.51;101264.00;5037020;28;96746;-86
2021/09/29 12:59:50;;;;;;;;;;;;;;;21.28;60.84;101268.94;5035677;28;96739;-86
2021/09/29 13:02:18;;;;;;;;;;;;;;;21.57;60.56;101270.41;5046502;27;97786;-81
2021/09/29 13:04:45;;;;;;;;;;;;;;;21.77;59.76;101258.19;5036346;28;97729;-84
2021/09/29 13:07:12;;;;;;;;;;;;;;;21.93;59.48;101271.31;5045674;27;95938;-86
2021/09/29 13:09:38;;;;;;;;;;;;;;;21.82;60.03;101270.31;5041799;28;95916;-85
2021/09/29 13:12:05;;;;;;;;;;;;;;;22.03;59.64;101267.88;5027872;28;99509;-86
2021/09/29 13:14:32;;;;;;;;;;;;;;;22.30;59.07;101262.25;5027705;28;97967;-85
2021/09/29 13:16:59;;;;;;;;;;;;;;;22.77;57.14;101273.91;5011388;28;96663;-85
2021/09/29 13:19:30;;;;;;;;;;;;;;;22.92;56.09;101267.31;5021962;28;97132;-84
2021/09/29 13:22:00;;;;;;;;;;;;;;;23.00;55.81;101273.81;5019598;28;100739;-84
2021/09/29 13:24:31;;;;;;;;;;;;;;;22.92;56.96;101272.69;5022408;28;96852;-86
2021/09/29 13:38:24;;;;;;;;;;;;;;;22.55;57.41;101278.25;5025029;28;96703;-85
2021/09/29 13:40:53;;;;;;;;;;;;;;;22.38;57.26;101277.81;5024894;28;96772;-83
2021/09/29 13:43:20;;;;;;;;;;;;;;;22.45;57.08;101279.91;5024357;28;99320;-84
2021/09/29 13:45:47;;;;;;;;;;;;;;;22.41;56.92;101274.88;5025225;28;100054;-86
2021/09/29 13:48:13;;;;;;;;;;;;;;;22.56;56.19;101282.66;5025171;28;96913;-86
2021/09/29 13:50:40;;;;;;;;;;;;;;;22.27;56.36;101281.31;5016939;28;97370;-85
2021/09/29 13:53:10;;;;;;;;;;;;;;;22.43;56.24;101281.88;5025661;28;99260;-85
2021/09/29 13:55:42;;;;;;;;;;;;;;;22.45;57.67;101282.59;5020778;28;100133;-87
2021/09/29 13:58:18;;;;;;;;;;;;;;;22.38;57.40;101289.47;5024564;28;96998;-85
2021/09/29 14:00:54;;;;;;;;;;;;;;;22.42;57.81;101282.84;5031655;27;97258;-84
2021/09/29 14:14:43;;;;;;;;;;;;;;;22.05;57.25;101268.63;5039294;27;96256;-83
2021/09/29 14:30:52;;;;;;;;;;;;;;;22.09;55.87;101261.19;5039871;27;96060;-84
2021/09/29 14:33:22;;;;;;;;;;;;;;;22.73;54.86;101254.41;5042025;27;96013;-83
2021/09/29 14:35:49;;;;;;;;;;;;;;;22.92;54.90;101251.13;5038686;27;97711;-85
2021/09/29 14:38:15;;;;;;;;;;;;;;;22.53;55.23;101252.38;5041118;27;96432;-83
2021/09/29 14:43:29;;;;;;;;;;;;;;;21.73;57.28;101259.34;5017142;28;97294;-85
2021/09/29 14:45:55;;;;;;;;;;;;;;;21.98;56.78;101253.06;5020561;28;100096;-85
2021/09/29 14:48:22;;;;;;;;;;;;;;;22.47;55.50;101256.41;5018289;28;99818;-85
2021/09/29 14:50:50;;;;;;;;;;;;;;;21.74;55.67;101247.63;5012398;28;96916;-85
2021/09/29 14:53:17;;;;;;;;;;;;;;;21.81;56.53;101246.22;5023018;28;96720;-85
2021/09/29 14:55:43;;;;;;;;;;;;;;;22.12;55.42;101248.34;5022342;28;100040;-85
2021/09/29 14:58:10;;;;;;;;;;;;;;;21.03;58.46;101253.69;5020499;28;96882;-84
2021/09/29 15:00:38;;;;;;;;;;;;;;;21.48;57.08;101252.25;5023864;28;96950;-84
2021/09/29 15:03:05;;;;;;;;;;;;;;;21.45;57.23;101265.94;5008922;28;96694;-85
2021/09/29 15:05:31;;;;;;;;;;;;;;;21.60;57.16;101269.31;5036692;28;99240;-84
2021/09/29 15:07:58;;;;;;;;;;;;;;;21.46;58.19;101278.41;5039721;27;98034;-85
2021/09/29 15:10:25;;;;;;;;;;;;;;;22.04;56.66;101274.13;5036697;27;96794;-86
2021/09/29 15:12:51;;;;;;;;;;;;;;;21.59;57.78;101268.47;5034635;27;96105;-85
2021/09/29 15:15:25;;;;;;;;;;;;;;;21.87;57.28;101265.44;5031289;27;96910;-84
2021/09/29 15:17:56;;;;;;;;;;;;;;;21.64;57.83;101268.97;5034783;28;100091;-84
2021/09/29 15:20:28;;;;;;;;;;;;;;;21.78;57.26;101267.97;5034795;28;96791;-84
2021/09/29 15:23:12;;;;;;;;;;;;;;;21.63;57.60;101261.88;5024918;28;96708;-85
2021/09/29 15:26:05;;;;;;;;;;;;;;;21.41;58.73;101265.28;5027515;28;98521;-85